createdAt,value
2023-04-25T00:00:33.531Z,4.00
2023-04-25T00:01:33.537Z,4.30
2023-04-25T00:02:33.726Z,4.10
2023-04-25T00:03:33.792Z,4.70
2023-04-25T00:04:33.797Z,4.10
2023-04-25T00:05:33.758Z,4.20
2023-04-25T00:06:33.462Z,4.50
2023-04-25T00:07:33.456Z,4.80
2023-04-25T00:08:33.451Z,4.40
2023-04-25T00:09:33.431Z,4.40
2023-04-25T00:10:33.437Z,4.30
2023-04-25T00:11:33.414Z,4.20
2023-04-25T00:12:33.416Z,5.00
2023-04-25T00:13:33.395Z,4.30
2023-04-25T00:14:33.375Z,4.20
2023-04-25T00:15:33.381Z,5.00
2023-04-25T00:16:33.497Z,4.30
2023-04-25T00:17:33.396Z,5.10
2023-04-25T00:18:33.452Z,4.50
2023-04-25T00:19:33.330Z,4.70
2023-04-25T00:20:33.304Z,4.70
2023-04-25T00:21:33.316Z,4.50
2023-04-25T00:22:33.290Z,4.40
2023-04-25T00:23:33.271Z,4.90
2023-04-25T00:24:33.273Z,4.40
2023-04-25T00:25:33.260Z,4.90
2023-04-25T00:26:33.247Z,5.00
2023-04-25T00:27:33.261Z,4.50
2023-04-25T00:28:33.220Z,4.50
2023-04-25T00:29:33.225Z,4.20
2023-04-25T00:30:33.210Z,4.60
2023-04-25T00:31:33.205Z,4.70
2023-04-25T00:32:33.222Z,4.70
2023-04-25T00:33:33.166Z,4.20
2023-04-25T00:34:33.193Z,4.50
2023-04-25T00:35:33.141Z,4.70
2023-04-25T00:36:33.138Z,4.60
2023-04-25T00:37:33.117Z,4.50
2023-04-25T00:38:33.097Z,4.70
2023-04-25T00:39:33.095Z,4.90
2023-04-25T00:40:33.094Z,4.70
2023-04-25T00:41:33.073Z,5.20
2023-04-25T00:42:40.066Z,5.10
2023-04-25T00:43:33.044Z,4.80
2023-04-25T00:44:33.052Z,4.30
2023-04-25T00:45:33.023Z,4.60
2023-04-25T00:46:33.048Z,4.70
2023-04-25T00:47:33.030Z,4.80
2023-04-25T00:48:33.003Z,4.80
2023-04-25T00:49:32.983Z,4.70
2023-04-25T00:50:33.005Z,4.90
2023-04-25T00:51:32.981Z,5.30
2023-04-25T00:52:32.951Z,4.60
2023-04-25T00:53:32.939Z,4.80
2023-04-25T00:54:32.960Z,5.00
2023-04-25T00:55:32.915Z,5.00
2023-04-25T00:56:32.897Z,5.00
2023-04-25T00:57:32.901Z,5.20
2023-04-25T00:58:32.887Z,5.10
2023-04-25T00:59:32.865Z,4.60
2023-04-25T01:00:32.873Z,5.20
2023-04-25T01:01:32.844Z,5.60
2023-04-25T01:02:32.904Z,5.40
2023-04-25T01:03:32.964Z,4.40
2023-04-25T01:04:32.877Z,4.80
2023-04-25T01:05:32.798Z,4.60
2023-04-25T01:06:32.810Z,5.10
2023-04-25T01:07:32.809Z,5.40
2023-04-25T01:08:32.777Z,5.30
2023-04-25T01:09:32.778Z,5.30
2023-04-25T01:10:32.744Z,5.30
2023-04-25T01:11:32.733Z,5.00
2023-04-25T01:12:32.734Z,5.10
2023-04-25T01:13:32.724Z,5.00
2023-04-25T01:14:32.701Z,5.10
2023-04-25T01:15:32.685Z,5.70
2023-04-25T01:16:32.718Z,5.10
2023-04-25T01:17:32.702Z,5.30
2023-04-25T01:18:32.656Z,4.70
2023-04-25T01:19:32.651Z,5.30
2023-04-25T01:20:32.634Z,6.20
2023-04-25T01:21:32.622Z,5.30
2023-04-25T01:22:32.648Z,5.80
2023-04-25T01:23:32.603Z,5.80
2023-04-25T01:24:32.604Z,5.40
2023-04-25T01:25:32.585Z,5.60
2023-04-25T01:26:32.565Z,6.10
2023-04-25T01:27:32.573Z,5.40
2023-04-25T01:28:32.559Z,5.50
2023-04-25T01:29:32.530Z,5.40
2023-04-25T01:30:32.520Z,5.90
2023-04-25T01:31:32.554Z,6.00
2023-04-25T01:32:32.537Z,5.60
2023-04-25T01:33:32.507Z,6.00
2023-04-25T01:34:32.478Z,6.00
2023-04-25T01:35:32.464Z,6.00
2023-04-25T01:36:32.464Z,5.90
2023-04-25T01:37:32.451Z,6.10
2023-04-25T01:38:32.475Z,5.80
2023-04-25T01:39:32.426Z,6.00
2023-04-25T01:40:32.419Z,6.00
2023-04-25T01:41:32.420Z,6.00
2023-04-25T01:42:32.419Z,6.50
2023-04-25T01:43:32.384Z,6.20
2023-04-25T01:44:32.377Z,6.20
2023-04-25T01:45:32.357Z,6.30
2023-04-25T01:46:32.474Z,6.40
2023-04-25T01:47:33.152Z,6.50
2023-04-25T01:48:32.340Z,6.00
2023-04-25T01:49:32.316Z,5.40
2023-04-25T01:50:32.313Z,6.00
2023-04-25T01:51:32.290Z,6.70
2023-04-25T01:52:32.284Z,5.80
2023-04-25T01:53:32.295Z,6.10
2023-04-25T01:54:32.311Z,5.30
2023-04-25T01:55:32.249Z,6.00
2023-04-25T01:56:32.234Z,6.70
2023-04-25T01:57:32.222Z,5.90
2023-04-25T01:58:32.223Z,6.00
2023-04-25T01:59:32.210Z,6.60
2023-04-25T02:00:32.192Z,5.90
2023-04-25T02:01:32.235Z,6.80
2023-04-25T02:02:32.294Z,6.80
2023-04-25T02:03:32.456Z,6.30
2023-04-25T02:04:32.211Z,6.10
2023-04-25T02:05:32.169Z,6.30
2023-04-25T02:06:32.135Z,6.60
2023-04-25T02:07:32.117Z,6.40
2023-04-25T02:08:32.103Z,6.10
2023-04-25T02:09:32.092Z,6.80
2023-04-25T02:10:32.116Z,6.40
2023-04-25T02:11:32.157Z,7.00
2023-04-25T02:12:32.059Z,6.60
2023-04-25T02:13:32.048Z,6.60
2023-04-25T02:14:32.034Z,6.80
2023-04-25T02:15:32.052Z,6.90
2023-04-25T02:16:32.213Z,6.70
2023-04-25T02:17:32.009Z,6.20
2023-04-25T02:18:31.989Z,5.90
2023-04-25T02:19:31.978Z,7.00
2023-04-25T02:20:31.970Z,6.70
2023-04-25T02:21:31.969Z,6.80
2023-04-25T02:22:31.945Z,6.40
2023-04-25T02:23:31.940Z,7.30
2023-04-25T02:24:31.922Z,6.80
2023-04-25T02:25:31.908Z,6.80
2023-04-25T02:26:31.946Z,6.70
2023-04-25T02:27:31.905Z,7.30
2023-04-25T02:28:31.886Z,6.70
2023-04-25T02:29:31.878Z,6.70
2023-04-25T02:30:31.871Z,7.40
2023-04-25T02:31:31.918Z,6.90
2023-04-25T02:32:31.897Z,6.80
2023-04-25T02:33:31.826Z,7.30
2023-04-25T02:34:31.815Z,7.70
2023-04-25T02:35:31.820Z,6.90
2023-04-25T02:36:31.792Z,7.30
2023-04-25T02:37:31.775Z,8.10
2023-04-25T02:38:31.776Z,7.30
2023-04-25T02:39:31.758Z,7.40
2023-04-25T02:40:31.761Z,7.30
2023-04-25T02:41:31.740Z,6.90
2023-04-25T02:42:31.757Z,7.30
2023-04-25T02:43:39.220Z,7.50
2023-04-25T02:44:31.705Z,7.10
2023-04-25T02:45:31.702Z,6.90
2023-04-25T02:46:38.954Z,7.10
2023-04-25T02:47:32.826Z,5.80
2023-04-25T02:48:31.662Z,6.30
2023-04-25T02:49:31.647Z,6.20
2023-04-25T02:50:31.651Z,6.40
2023-04-25T02:51:31.629Z,6.40
2023-04-25T02:52:31.646Z,5.80
2023-04-25T02:53:31.622Z,6.60
2023-04-25T02:54:31.624Z,7.00
2023-04-25T02:55:31.584Z,6.70
2023-04-25T02:56:31.575Z,6.00
2023-04-25T02:57:31.575Z,6.60
2023-04-25T02:58:31.573Z,6.40
2023-04-25T02:59:31.537Z,6.60
2023-04-25T03:00:31.588Z,6.30
2023-04-25T03:01:31.542Z,6.20
2023-04-25T03:02:31.592Z,6.80
2023-04-25T03:03:31.511Z,6.70
2023-04-25T03:04:31.524Z,6.50
2023-04-25T03:05:31.483Z,6.40
2023-04-25T03:06:31.460Z,6.30
2023-04-25T03:07:31.459Z,6.70
2023-04-25T03:08:31.436Z,6.50
2023-04-25T03:09:31.440Z,7.10
2023-04-25T03:10:31.419Z,6.30
2023-04-25T03:11:31.412Z,6.70
2023-04-25T03:12:31.405Z,7.00
2023-04-25T03:13:31.381Z,6.30
2023-04-25T03:14:31.391Z,6.60
2023-04-25T03:15:31.360Z,6.90
2023-04-25T03:16:31.410Z,6.60
2023-04-25T03:17:31.359Z,6.80
2023-04-25T03:18:31.331Z,7.00
2023-04-25T03:19:31.355Z,6.80
2023-04-25T03:20:31.307Z,6.80
2023-04-25T03:21:31.291Z,6.60
2023-04-25T03:22:31.295Z,6.50
2023-04-25T03:23:31.285Z,6.50
2023-04-25T03:24:31.260Z,7.40
2023-04-25T03:25:31.250Z,6.30
2023-04-25T03:26:31.253Z,7.00
2023-04-25T03:27:31.226Z,7.10
2023-04-25T03:28:31.246Z,7.70
2023-04-25T03:29:31.211Z,7.50
2023-04-25T03:30:31.225Z,7.00
2023-04-25T03:31:31.207Z,6.40
2023-04-25T03:32:31.192Z,6.50
2023-04-25T03:33:31.156Z,6.60
2023-04-25T03:34:31.162Z,6.30
2023-04-25T03:35:31.160Z,6.90
2023-04-25T03:36:31.165Z,6.40
2023-04-25T03:37:31.132Z,6.30
2023-04-25T03:38:31.129Z,5.80
2023-04-25T03:39:31.108Z,6.30
2023-04-25T03:40:31.261Z,6.30
2023-04-25T03:41:31.084Z,6.70
2023-04-25T03:42:31.061Z,6.60
2023-04-25T03:43:31.048Z,6.00
2023-04-25T03:44:31.047Z,5.50
2023-04-25T03:45:31.028Z,5.50
2023-04-25T03:46:31.274Z,6.10
2023-04-25T03:47:31.029Z,5.70
2023-04-25T03:48:30.997Z,5.20
2023-04-25T03:49:31.013Z,5.50
2023-04-25T03:50:30.975Z,5.50
2023-04-25T03:51:30.972Z,5.60
2023-04-25T03:52:30.950Z,6.00
2023-04-25T03:53:30.936Z,5.40
2023-04-25T03:54:30.948Z,5.10
2023-04-25T03:55:30.910Z,5.30
2023-04-25T03:56:30.917Z,5.50
2023-04-25T03:57:30.893Z,5.60
2023-04-25T03:58:30.885Z,5.40
2023-04-25T03:59:30.871Z,5.10
2023-04-25T04:00:30.862Z,5.40
2023-04-25T04:01:30.860Z,5.20
2023-04-25T04:02:30.958Z,4.80
2023-04-25T04:03:31.134Z,5.20
2023-04-25T04:04:31.046Z,5.30
2023-04-25T04:05:30.816Z,5.50
2023-04-25T04:06:30.816Z,5.40
2023-04-25T04:07:30.797Z,5.70
2023-04-25T04:08:30.783Z,5.10
2023-04-25T04:09:30.758Z,4.90
2023-04-25T04:10:30.758Z,5.30
2023-04-25T04:11:30.735Z,5.30
2023-04-25T04:12:30.743Z,5.50
2023-04-25T04:13:30.716Z,5.30
2023-04-25T04:14:30.706Z,5.50
2023-04-25T04:15:30.690Z,5.40
2023-04-25T04:16:32.620Z,5.70
2023-04-25T04:17:30.698Z,5.80
2023-04-25T04:18:30.680Z,4.90
2023-04-25T04:19:30.661Z,5.40
2023-04-25T04:20:30.636Z,5.40
2023-04-25T04:21:30.622Z,5.10
2023-04-25T04:22:30.637Z,5.20
2023-04-25T04:23:30.598Z,5.10
2023-04-25T04:24:30.605Z,5.30
2023-04-25T04:25:30.581Z,5.10
2023-04-25T04:26:30.572Z,5.80
2023-04-25T04:27:30.575Z,5.20
2023-04-25T04:28:30.548Z,4.60
2023-04-25T04:29:30.553Z,5.20
2023-04-25T04:30:30.605Z,5.30
2023-04-25T04:31:30.561Z,5.40
2023-04-25T04:32:30.558Z,5.00
2023-04-25T04:33:30.503Z,5.80
2023-04-25T04:34:30.502Z,4.90
2023-04-25T04:35:30.492Z,4.90
2023-04-25T04:36:30.481Z,4.70
2023-04-25T04:37:30.463Z,5.00
2023-04-25T04:38:30.440Z,5.10
2023-04-25T04:39:30.430Z,5.30
2023-04-25T04:40:30.429Z,5.00
2023-04-25T04:41:30.408Z,5.50
2023-04-25T04:42:30.408Z,5.30
2023-04-25T04:43:30.396Z,5.10
2023-04-25T04:44:37.914Z,4.50
2023-04-25T04:45:30.360Z,4.80
2023-04-25T04:46:30.399Z,5.50
2023-04-25T04:47:30.457Z,5.00
2023-04-25T04:48:30.332Z,4.90
2023-04-25T04:49:30.331Z,4.50
2023-04-25T04:50:30.339Z,4.60
2023-04-25T04:51:30.298Z,5.20
2023-04-25T04:52:30.296Z,4.90
2023-04-25T04:53:30.299Z,5.20
2023-04-25T04:54:30.267Z,5.40
2023-04-25T04:55:30.268Z,4.90
2023-04-25T04:56:30.251Z,5.00
2023-04-25T04:57:30.251Z,4.40
2023-04-25T04:58:30.264Z,4.90
2023-04-25T04:59:30.220Z,5.10
2023-04-25T05:00:30.352Z,5.20
2023-04-25T05:01:30.253Z,4.90
2023-04-25T05:02:30.308Z,4.50
2023-04-25T05:03:30.404Z,4.80
2023-04-25T05:04:30.263Z,4.50
2023-04-25T05:05:30.168Z,4.90
2023-04-25T05:06:30.197Z,4.90
2023-04-25T05:07:30.136Z,5.30
2023-04-25T05:08:30.124Z,5.40
2023-04-25T05:09:30.237Z,4.40
2023-04-25T05:10:30.107Z,4.10
2023-04-25T05:11:30.082Z,4.70
2023-04-25T05:12:30.066Z,4.40
2023-04-25T05:13:30.060Z,4.40
2023-04-25T05:14:30.060Z,4.40
2023-04-25T05:15:30.035Z,3.90
2023-04-25T05:16:30.040Z,4.80
2023-04-25T05:17:30.053Z,4.80
2023-04-25T05:18:30.024Z,5.40
2023-04-25T05:19:29.991Z,4.60
2023-04-25T05:20:30.002Z,4.30
2023-04-25T05:21:29.985Z,4.60
2023-04-25T05:22:29.977Z,4.20
2023-04-25T05:23:29.961Z,4.20
2023-04-25T05:24:29.932Z,4.50
2023-04-25T05:25:29.924Z,4.20
2023-04-25T05:26:29.905Z,4.70
2023-04-25T05:27:29.904Z,5.10
2023-04-25T05:28:29.909Z,4.40
2023-04-25T05:29:29.879Z,4.70
2023-04-25T05:30:29.862Z,4.10
2023-04-25T05:31:29.914Z,5.70
2023-04-25T05:32:29.921Z,4.60
2023-04-25T05:33:29.861Z,5.20
2023-04-25T05:34:29.824Z,4.10
2023-04-25T05:35:29.888Z,4.50
2023-04-25T05:36:29.804Z,4.60
2023-04-25T05:37:29.791Z,5.80
2023-04-25T05:38:30.341Z,4.70
2023-04-25T05:39:29.990Z,4.60
2023-04-25T05:40:29.788Z,4.80
2023-04-25T05:41:29.744Z,4.70
2023-04-25T05:42:29.772Z,4.10
2023-04-25T05:43:29.745Z,4.30
2023-04-25T05:44:29.709Z,4.60
2023-04-25T05:45:29.695Z,4.50
2023-04-25T05:46:29.744Z,4.50
2023-04-25T05:47:29.746Z,4.70
2023-04-25T05:48:29.664Z,4.70
2023-04-25T05:49:29.658Z,4.50
2023-04-25T05:50:29.653Z,4.70
2023-04-25T05:51:29.653Z,4.50
2023-04-25T05:52:29.630Z,4.60
2023-04-25T05:53:29.628Z,4.50
2023-04-25T05:54:29.620Z,4.40
2023-04-25T05:55:29.593Z,4.20
2023-04-25T05:56:29.586Z,4.70
2023-04-25T05:57:29.574Z,4.40
2023-04-25T05:58:29.587Z,4.20
2023-04-25T05:59:29.570Z,4.00
2023-04-25T06:00:29.547Z,5.40
2023-04-25T06:01:29.557Z,4.30
2023-04-25T06:02:29.607Z,4.30
2023-04-25T06:03:29.708Z,4.60
2023-04-25T06:04:29.786Z,4.00
2023-04-25T06:05:29.628Z,4.30
2023-04-25T06:06:29.476Z,3.80
2023-04-25T06:07:29.479Z,4.40
2023-04-25T06:08:29.448Z,3.90
2023-04-25T06:09:29.450Z,4.20
2023-04-25T06:10:29.538Z,4.20
2023-04-25T06:11:29.426Z,5.10
2023-04-25T06:12:29.396Z,4.70
2023-04-25T06:13:29.457Z,4.10
2023-04-25T06:14:29.850Z,4.30
2023-04-25T06:15:29.387Z,4.80
2023-04-25T06:16:29.396Z,4.10
2023-04-25T06:17:29.396Z,3.70
2023-04-25T06:18:29.345Z,4.20
2023-04-25T06:19:29.340Z,3.90
2023-04-25T06:20:29.363Z,4.10
2023-04-25T06:21:29.364Z,4.20
2023-04-25T06:22:29.308Z,3.70
2023-04-25T06:23:29.315Z,5.00
2023-04-25T06:24:29.270Z,4.50
2023-04-25T06:25:29.264Z,4.00
2023-04-25T06:26:29.261Z,3.70
2023-04-25T06:27:29.232Z,3.90
2023-04-25T06:28:29.233Z,3.60
2023-04-25T06:29:29.227Z,4.30
2023-04-25T06:30:29.285Z,4.50
2023-04-25T06:31:29.215Z,3.70
2023-04-25T06:32:29.391Z,4.00
2023-04-25T06:33:29.185Z,3.80
2023-04-25T06:34:29.174Z,4.00
2023-04-25T06:35:29.140Z,3.70
2023-04-25T06:36:29.135Z,3.90
2023-04-25T06:37:29.128Z,3.90
2023-04-25T06:38:29.244Z,3.90
2023-04-25T06:39:29.279Z,3.80
2023-04-25T06:40:29.113Z,3.80
2023-04-25T06:41:29.096Z,3.60
2023-04-25T06:42:29.086Z,3.50
2023-04-25T06:43:29.089Z,3.40
2023-04-25T06:44:29.057Z,3.70
2023-04-25T06:45:36.583Z,4.60
2023-04-25T06:46:29.050Z,3.90
2023-04-25T06:47:29.069Z,3.10
2023-04-25T06:48:29.031Z,3.20
2023-04-25T06:49:28.990Z,3.50
2023-04-25T06:50:28.991Z,4.00
2023-04-25T06:51:29.010Z,3.40
2023-04-25T06:52:28.955Z,3.60
2023-04-25T06:53:28.969Z,3.70
2023-04-25T06:54:28.977Z,3.80
2023-04-25T06:55:28.923Z,3.50
2023-04-25T06:56:28.916Z,3.40
2023-04-25T06:57:28.906Z,3.70
2023-04-25T06:58:28.923Z,3.70
2023-04-25T06:59:28.910Z,3.30
2023-04-25T07:00:28.912Z,3.50
2023-04-25T07:01:28.942Z,3.30
2023-04-25T07:02:28.955Z,3.60
2023-04-25T07:03:28.979Z,3.80
2023-04-25T07:04:29.075Z,3.40
2023-04-25T07:05:28.821Z,3.50
2023-04-25T07:06:28.805Z,3.30
2023-04-25T07:07:28.808Z,3.30
2023-04-25T07:08:28.797Z,3.10
2023-04-25T07:09:28.823Z,3.00
2023-04-25T07:10:28.766Z,3.00
2023-04-25T07:11:28.824Z,3.00
2023-04-25T07:12:28.753Z,3.50
2023-04-25T07:13:28.754Z,3.10
2023-04-25T07:14:28.756Z,3.70
2023-04-25T07:15:28.735Z,3.10
2023-04-25T07:16:28.757Z,3.30
2023-04-25T07:17:28.741Z,2.90
2023-04-25T07:18:28.704Z,3.70
2023-04-25T07:19:28.663Z,3.50
2023-04-25T07:20:28.701Z,3.00
2023-04-25T07:21:28.652Z,3.50
2023-04-25T07:22:28.671Z,3.10
2023-04-25T07:23:28.634Z,3.30
2023-04-25T07:24:28.645Z,3.10
2023-04-25T07:25:28.603Z,3.00
2023-04-25T07:26:28.592Z,3.20
2023-04-25T07:27:28.591Z,3.20
2023-04-25T07:28:28.558Z,3.80
2023-04-25T07:29:28.567Z,3.30
2023-04-25T07:30:28.680Z,2.70
2023-04-25T07:31:28.588Z,3.30
2023-04-25T07:32:28.644Z,2.80
2023-04-25T07:33:28.522Z,2.90
2023-04-25T07:34:28.548Z,3.00
2023-04-25T07:35:28.508Z,3.00
2023-04-25T07:36:28.503Z,3.40
2023-04-25T07:37:28.464Z,3.20
2023-04-25T07:38:28.461Z,3.80
2023-04-25T07:39:28.499Z,3.00
2023-04-25T07:40:28.448Z,3.40
2023-04-25T07:41:28.424Z,3.10
2023-04-25T07:42:28.420Z,3.30
2023-04-25T07:43:28.408Z,3.20
2023-04-25T07:44:28.493Z,3.30
2023-04-25T07:45:28.935Z,3.20
2023-04-25T07:46:28.457Z,3.10
2023-04-25T07:47:28.376Z,2.60
2023-04-25T07:48:29.055Z,3.50
2023-04-25T07:49:28.345Z,2.80
2023-04-25T07:50:28.377Z,3.50
2023-04-25T07:51:28.307Z,2.80
2023-04-25T07:52:28.307Z,3.00
2023-04-25T07:53:28.289Z,3.40
2023-04-25T07:54:28.271Z,2.90
2023-04-25T07:55:28.279Z,2.80
2023-04-25T07:56:30.379Z,3.30
2023-04-25T07:57:28.257Z,3.00
2023-04-25T07:58:28.239Z,2.50
2023-04-25T07:59:30.155Z,2.90
2023-04-25T08:00:28.306Z,3.10
2023-04-25T08:01:28.199Z,2.60
2023-04-25T08:02:28.240Z,2.30
2023-04-25T08:03:28.442Z,2.30
2023-04-25T08:04:28.321Z,2.30
2023-04-25T08:05:28.325Z,2.50
2023-04-25T08:06:28.331Z,3.00
2023-04-25T08:07:28.204Z,2.90
2023-04-25T08:08:28.130Z,2.10
2023-04-25T08:09:28.131Z,2.60
2023-04-25T08:10:28.109Z,2.60
2023-04-25T08:11:28.131Z,2.70
2023-04-25T08:12:28.086Z,2.40
2023-04-25T08:13:28.076Z,3.20
2023-04-25T08:14:28.069Z,2.70
2023-04-25T08:15:28.075Z,2.80
2023-04-25T08:16:28.151Z,2.30
2023-04-25T08:17:28.033Z,2.50
2023-04-25T08:18:28.093Z,2.40
2023-04-25T08:19:28.048Z,2.60
2023-04-25T08:20:27.985Z,2.20
2023-04-25T08:21:28.009Z,3.00
2023-04-25T08:22:27.974Z,3.00
2023-04-25T08:23:27.954Z,2.30
2023-04-25T08:24:27.939Z,2.60
2023-04-25T08:25:27.943Z,2.30
2023-04-25T08:26:28.007Z,2.00
2023-04-25T08:27:27.946Z,2.80
2023-04-25T08:28:27.925Z,2.10
2023-04-25T08:29:27.901Z,2.40
2023-04-25T08:30:27.887Z,2.30
2023-04-25T08:31:27.998Z,2.10
2023-04-25T08:32:29.686Z,2.10
2023-04-25T08:33:28.016Z,2.40
2023-04-25T08:34:27.852Z,1.90
2023-04-25T08:35:27.848Z,1.90
2023-04-25T08:36:38.505Z,2.00
2023-04-25T08:37:27.812Z,2.10
2023-04-25T08:38:27.840Z,1.70
2023-04-25T08:39:27.822Z,2.20
2023-04-25T08:40:27.764Z,2.30
2023-04-25T08:41:27.764Z,2.20
2023-04-25T08:42:27.754Z,2.20
2023-04-25T08:43:27.750Z,1.90
2023-04-25T08:44:27.732Z,2.20
2023-04-25T08:45:27.716Z,2.50
2023-04-25T08:46:35.257Z,2.20
2023-04-25T08:47:27.757Z,2.30
2023-04-25T08:48:27.675Z,1.90
2023-04-25T08:49:27.668Z,2.20
2023-04-25T08:50:27.727Z,1.80
2023-04-25T08:51:27.667Z,2.00
2023-04-25T08:52:27.646Z,2.10
2023-04-25T08:53:28.227Z,2.30
2023-04-25T08:54:34.457Z,2.10
2023-04-25T08:55:28.708Z,1.70
2023-04-25T08:56:29.074Z,2.20
2023-04-25T08:57:27.596Z,2.30
2023-04-25T08:58:27.561Z,2.70
2023-04-25T08:59:27.548Z,2.40
2023-04-25T09:00:27.545Z,2.10
2023-04-25T09:01:27.606Z,1.90
2023-04-25T09:02:27.613Z,1.80
2023-04-25T09:03:27.794Z,1.80
2023-04-25T09:04:27.501Z,1.80
2023-04-25T09:05:27.489Z,2.10
2023-04-25T09:06:27.548Z,2.00
2023-04-25T09:07:27.592Z,2.30
2023-04-25T09:08:27.557Z,2.00
2023-04-25T09:09:27.446Z,1.90
2023-04-25T09:10:27.427Z,1.70
2023-04-25T09:11:27.451Z,2.00
2023-04-25T09:12:27.419Z,2.70
2023-04-25T09:13:27.405Z,1.90
2023-04-25T09:14:27.397Z,1.70
2023-04-25T09:15:27.375Z,1.90
2023-04-25T09:16:27.476Z,1.90
2023-04-25T09:17:27.394Z,2.00
2023-04-25T09:18:30.601Z,1.90
2023-04-25T09:19:38.803Z,2.30
2023-04-25T09:20:28.334Z,1.70
2023-04-25T09:21:27.319Z,2.10
2023-04-25T09:22:27.329Z,1.70
2023-04-25T09:23:27.291Z,1.60
2023-04-25T09:24:27.333Z,1.70
2023-04-25T09:25:27.270Z,1.40
2023-04-25T09:26:27.262Z,2.00
2023-04-25T09:27:27.260Z,1.60
2023-04-25T09:28:28.556Z,1.60
2023-04-25T09:29:27.232Z,1.60
2023-04-25T09:30:27.209Z,1.60
2023-04-25T09:31:27.309Z,1.50
2023-04-25T09:32:27.425Z,1.90
2023-04-25T09:33:27.236Z,1.50
2023-04-25T09:34:27.175Z,1.80
2023-04-25T09:35:27.166Z,1.50
2023-04-25T09:36:27.620Z,1.60
2023-04-25T09:37:27.145Z,1.50
2023-04-25T09:38:27.148Z,1.70
2023-04-25T09:39:27.125Z,1.40
2023-04-25T09:40:27.104Z,1.60
2023-04-25T09:41:27.083Z,2.20
2023-04-25T09:42:27.139Z,1.30
2023-04-25T09:43:27.058Z,1.30
2023-04-25T09:44:27.076Z,1.50
2023-04-25T09:45:27.037Z,1.70
2023-04-25T09:46:27.067Z,1.80
2023-04-25T09:47:27.065Z,1.70
2023-04-25T09:48:27.038Z,1.30
2023-04-25T09:49:27.068Z,1.50
2023-04-25T09:50:26.981Z,1.60
2023-04-25T09:51:26.988Z,1.30
2023-04-25T09:52:26.961Z,1.40
2023-04-25T09:53:26.970Z,1.30
2023-04-25T09:54:27.058Z,1.40
2023-04-25T09:55:26.975Z,1.80
2023-04-25T09:56:27.024Z,1.20
2023-04-25T09:57:27.034Z,1.30
2023-04-25T09:58:26.907Z,1.30
2023-04-25T09:59:26.891Z,1.50
2023-04-25T10:00:26.887Z,1.60
2023-04-25T10:01:26.889Z,1.70
2023-04-25T10:02:27.034Z,1.30
2023-04-25T10:03:27.102Z,1.30
2023-04-25T10:04:26.903Z,1.50
2023-04-25T10:05:26.827Z,1.60
2023-04-25T10:06:26.807Z,1.60
2023-04-25T10:07:26.848Z,1.30
2023-04-25T10:08:26.807Z,1.60
2023-04-25T10:09:26.777Z,1.70
2023-04-25T10:10:26.903Z,1.50
2023-04-25T10:11:26.824Z,1.70
2023-04-25T10:12:26.744Z,1.50
2023-04-25T10:13:26.754Z,1.70
2023-04-25T10:14:26.722Z,1.60
2023-04-25T10:15:26.770Z,1.60
2023-04-25T10:16:26.870Z,1.40
2023-04-25T10:17:26.808Z,1.80
2023-04-25T10:18:26.721Z,1.50
2023-04-25T10:19:26.671Z,1.70
2023-04-25T10:20:26.674Z,1.60
2023-04-25T10:21:26.643Z,1.90
2023-04-25T10:22:26.706Z,1.70
2023-04-25T10:23:27.221Z,2.30
2023-04-25T10:24:26.705Z,1.90
2023-04-25T10:25:26.602Z,1.60
2023-04-25T10:26:26.611Z,1.80
2023-04-25T10:27:26.584Z,1.50
2023-04-25T10:28:26.618Z,1.80
2023-04-25T10:29:26.611Z,1.50
2023-04-25T10:30:26.614Z,1.60
2023-04-25T10:31:26.668Z,1.60
2023-04-25T10:32:26.530Z,1.90
2023-04-25T10:33:26.517Z,1.80
2023-04-25T10:34:26.527Z,1.70
2023-04-25T10:35:26.495Z,1.80
2023-04-25T10:36:26.498Z,2.00
2023-04-25T10:37:26.464Z,1.80
2023-04-25T10:38:26.454Z,1.90
2023-04-25T10:39:26.450Z,1.80
2023-04-25T10:40:26.431Z,1.40
2023-04-25T10:41:26.431Z,1.70
2023-04-25T10:42:26.435Z,1.60
2023-04-25T10:43:26.440Z,1.60
2023-04-25T10:44:26.395Z,1.30
2023-04-25T10:45:26.385Z,1.70
2023-04-25T10:46:26.407Z,1.30
2023-04-25T10:47:33.956Z,1.60
2023-04-25T10:48:26.347Z,1.20
2023-04-25T10:49:26.393Z,1.60
2023-04-25T10:50:26.339Z,1.70
2023-04-25T10:51:26.359Z,1.60
2023-04-25T10:52:26.328Z,1.60
2023-04-25T10:53:26.285Z,1.50
2023-04-25T10:54:26.326Z,1.40
2023-04-25T10:55:26.271Z,1.70
2023-04-25T10:56:26.272Z,1.50
2023-04-25T10:57:26.249Z,2.00
2023-04-25T10:58:26.250Z,1.70
2023-04-25T10:59:26.229Z,1.80
2023-04-25T11:00:33.930Z,1.70
2023-04-25T11:01:26.263Z,1.60
2023-04-25T11:02:26.303Z,1.30
2023-04-25T11:03:26.510Z,1.50
2023-04-25T11:04:26.725Z,1.90
2023-04-25T11:05:26.258Z,1.60
2023-04-25T11:06:26.162Z,1.80
2023-04-25T11:07:26.141Z,1.70
2023-04-25T11:08:26.242Z,1.70
2023-04-25T11:09:26.119Z,1.60
2023-04-25T11:10:26.152Z,1.80
2023-04-25T11:11:26.082Z,1.40
2023-04-25T11:12:26.081Z,1.60
2023-04-25T11:13:26.179Z,1.60
2023-04-25T11:14:26.108Z,1.50
2023-04-25T11:15:26.042Z,1.50
2023-04-25T11:16:28.277Z,1.50
2023-04-25T11:17:26.096Z,1.30
2023-04-25T11:18:26.102Z,1.70
2023-04-25T11:19:26.033Z,1.60
2023-04-25T11:20:26.138Z,1.60
2023-04-25T11:21:26.139Z,1.40
2023-04-25T11:22:26.052Z,1.40
2023-04-25T11:23:26.109Z,1.30
2023-04-25T11:24:25.945Z,1.50
2023-04-25T11:25:25.958Z,1.40
2023-04-25T11:26:25.931Z,1.40
2023-04-25T11:27:25.908Z,1.50
2023-04-25T11:28:26.742Z,1.60
2023-04-25T11:29:25.889Z,1.50
2023-04-25T11:30:25.948Z,1.90
2023-04-25T11:31:25.941Z,1.80
2023-04-25T11:32:27.640Z,1.50
2023-04-25T11:33:25.907Z,1.10
2023-04-25T11:34:25.848Z,1.40
2023-04-25T11:35:25.848Z,1.30
2023-04-25T11:36:25.818Z,1.20
2023-04-25T11:37:25.793Z,1.60
2023-04-25T11:38:27.255Z,1.50
2023-04-25T11:39:25.787Z,1.20
2023-04-25T11:40:25.789Z,1.30
2023-04-25T11:41:26.712Z,1.20
2023-04-25T11:42:25.802Z,1.20
2023-04-25T11:43:25.730Z,1.30
2023-04-25T11:44:25.720Z,1.20
2023-04-25T11:45:25.729Z,1.50
2023-04-25T11:46:25.812Z,1.50
2023-04-25T11:47:25.737Z,1.20
2023-04-25T11:48:26.106Z,1.30
2023-04-25T11:49:25.677Z,1.20
2023-04-25T11:50:25.678Z,1.20
2023-04-25T11:51:25.639Z,1.20
2023-04-25T11:52:25.686Z,1.10
2023-04-25T11:53:25.639Z,1.30
2023-04-25T11:54:25.726Z,1.60
2023-04-25T11:55:25.629Z,1.30
2023-04-25T11:56:25.586Z,1.60
2023-04-25T11:57:25.582Z,1.40
2023-04-25T11:58:25.573Z,1.70
2023-04-25T11:59:25.549Z,1.10
2023-04-25T12:00:25.548Z,1.40
2023-04-25T12:01:26.015Z,1.40
2023-04-25T12:02:25.806Z,1.50
2023-04-25T12:03:25.693Z,1.30
2023-04-25T12:04:25.873Z,1.50
2023-04-25T12:06:26.456Z,1.50
2023-04-25T12:07:25.460Z,1.10
2023-04-25T12:08:25.449Z,1.30
2023-04-25T12:09:25.448Z,1.40
2023-04-25T12:10:25.431Z,1.30
2023-04-25T12:11:25.416Z,1.40
2023-04-25T12:12:25.441Z,1.10
2023-04-25T12:13:25.412Z,1.10
2023-04-25T12:14:25.494Z,1.40
2023-04-25T12:15:25.395Z,1.20
2023-04-25T12:16:25.395Z,1.10
2023-04-25T12:17:25.344Z,1.20
2023-04-25T12:18:25.373Z,1.30
2023-04-25T12:19:25.327Z,1.20
2023-04-25T12:20:25.369Z,1.40
2023-04-25T12:21:25.304Z,1.30
2023-04-25T12:22:25.311Z,1.10
2023-04-25T12:23:25.306Z,1.00
2023-04-25T12:24:25.269Z,1.00
2023-04-25T12:25:25.283Z,1.20
2023-04-25T12:26:25.251Z,0.90
2023-04-25T12:27:25.251Z,1.30
2023-04-25T12:28:25.227Z,1.10
2023-04-25T12:29:27.665Z,1.30
2023-04-25T12:30:25.262Z,0.90
2023-04-25T12:31:25.219Z,1.00
2023-04-25T12:32:25.282Z,1.20
2023-04-25T12:33:25.203Z,1.10
2023-04-25T12:34:25.182Z,1.20
2023-04-25T12:35:25.160Z,1.20
2023-04-25T12:36:25.142Z,1.10
2023-04-25T12:37:25.161Z,1.70
2023-04-25T12:38:25.153Z,0.90
2023-04-25T12:39:25.109Z,1.10
2023-04-25T12:40:25.095Z,1.00
2023-04-25T12:41:25.078Z,1.00
2023-04-25T12:42:25.075Z,1.00
2023-04-25T12:43:25.061Z,1.10
2023-04-25T12:44:25.056Z,1.10
2023-04-25T12:45:25.027Z,1.30
2023-04-25T12:46:25.047Z,1.10
2023-04-25T12:47:25.104Z,1.10
2023-04-25T12:48:32.533Z,1.30
2023-04-25T12:49:24.997Z,1.30
2023-04-25T12:50:25.240Z,1.10
2023-04-25T12:51:24.969Z,1.10
2023-04-25T12:52:25.661Z,1.00
2023-04-25T12:53:24.947Z,1.10
2023-04-25T12:54:24.955Z,1.20
2023-04-25T12:55:24.920Z,1.00
2023-04-25T12:56:25.696Z,1.30
2023-04-25T12:57:25.178Z,1.00
2023-04-25T12:58:24.915Z,1.00
2023-04-25T12:59:24.892Z,0.90
2023-04-25T13:00:24.878Z,1.00
2023-04-25T13:01:24.907Z,1.10
2023-04-25T13:02:25.060Z,1.10
2023-04-25T13:03:24.961Z,1.00
2023-04-25T13:04:24.994Z,0.80
2023-04-25T13:05:24.812Z,1.20
2023-04-25T13:06:24.829Z,1.10
2023-04-25T13:07:24.823Z,1.20
2023-04-25T13:08:24.776Z,1.10
2023-04-25T13:09:24.763Z,1.40
2023-04-25T13:10:24.757Z,1.10
2023-04-25T13:11:24.757Z,1.20
2023-04-25T13:12:24.755Z,1.30
2023-04-25T13:13:24.727Z,1.40
2023-04-25T13:14:24.737Z,1.20
2023-04-25T13:15:24.701Z,1.20
2023-04-25T13:16:24.709Z,1.20
2023-04-25T13:17:25.843Z,1.00
2023-04-25T13:18:24.663Z,1.00
2023-04-25T13:19:24.661Z,1.00